Terminal Aerodrome Forecast
Issued by NWS

Home | Current Version | Previous Version | Text Only | Print | Product List | Glossary On
Versions: 1 2 3 4 5 6 7 8 9 10 11 12 13 14 15 16
000
FTAK31 PAJN 170500
TAFASI
TAF
PASI 170520Z 1706/1806 33008KT P6SM FEW025 SCT050 BKN150
     FM171000 VRB03KT P6SM VCFG FEW005 BKN040
     FM171800 14007KT P6SM OVC050
     FM180300 14007KT P6SM VCSH OVC050=

USA.gov is the U.S. government's official web portal to all federal, state and local government web resources and services.